Terminal Aerodrome Forecast
Issued by NWS Tampa Bay Area, FL

Home | Current Version | Previous Version | Text Only | Print | Product List | Glossary On
Versions: 1 2 3 4 5 6 7 8 9 10 11 12 13 14 15
258
FTUS42 KTBW 251728
TAFFMY
TAF
KFMY 251728Z 2518/2618 09005KT P6SM VCTS BKN040CB
     FM252100 26007KT P6SM VCTS SCT050CB SCT250
     FM260200 10003KT P6SM SCT035 BKN250
     FM261400 09004KT P6SM FEW025 FEW250=

USA.gov is the U.S. government's official web portal to all federal, state and local government web resources and services.